Atlanticbeach, North Carolina
Current Conditions -  °F | °C
As of 1:11 PM on Monday 24 Nov 2014 (Local Time) from KMRH Reporting Station
Haze Haze  
Wind Chill: 20°   Ceiling: 500
Heat Index: 20°   Visibility: 4mi
Dew Point: 19°   Wind: 13mph
Humidity: 96%   Direction: 220°SW
Pressure: 29.88"   Gusts: NA
Location:  34.6984°N, 76.7775°W
Report Text: KMRH 241811Z AUTO 22011KT 4SM BR OVC005 20/19 A2988 RMK AO2 T02000194 TSNO
Loading
Personal Weather Stations






























Interactive Weather Map New forecast layout! Learn more

10-Day Weather Forecast

Advertisements
Track Severe Weather on mobile